createdAt,value
2022-12-27T00:00:55.109Z,78.52
2022-12-27T00:03:21.689Z,77.93
2022-12-27T00:05:48.431Z,77.96
2022-12-27T00:08:15.207Z,78.24
2022-12-27T00:10:41.763Z,77.54
2022-12-27T00:13:08.158Z,77.28
2022-12-27T00:15:35.625Z,77.77
2022-12-27T00:18:02.623Z,77.97
2022-12-27T00:20:29.072Z,78.01
2022-12-27T00:22:55.498Z,78.57
2022-12-27T00:25:21.971Z,78.60
2022-12-27T00:27:48.371Z,79.17
2022-12-27T00:30:15.562Z,78.77
2022-12-27T00:32:41.981Z,78.03
2022-12-27T00:35:09.184Z,77.86
2022-12-27T00:37:35.591Z,78.18
2022-12-27T00:40:02.084Z,78.32
2022-12-27T00:42:28.556Z,78.35
2022-12-27T00:44:54.983Z,77.96
2022-12-27T00:47:21.437Z,78.11
2022-12-27T00:49:47.846Z,77.48
2022-12-27T00:52:14.357Z,77.89
2022-12-27T00:54:40.744Z,77.11
2022-12-27T00:57:07.376Z,76.96
2022-12-27T00:59:33.806Z,77.20
2022-12-27T01:02:00.350Z,76.35
2022-12-27T01:04:26.962Z,76.80
2022-12-27T01:06:53.384Z,77.33
2022-12-27T01:09:20.982Z,76.31
2022-12-27T01:11:47.479Z,76.58
2022-12-27T01:14:13.903Z,77.25
2022-12-27T01:16:40.634Z,77.46
2022-12-27T01:19:07.230Z,76.80
2022-12-27T01:21:33.826Z,77.40
2022-12-27T01:24:00.328Z,77.71
2022-12-27T01:26:28.022Z,77.79
2022-12-27T01:28:54.749Z,77.81
2022-12-27T01:31:27.702Z,77.53
2022-12-27T01:33:59.167Z,77.11
2022-12-27T01:36:27.023Z,76.08
2022-12-27T01:38:54.034Z,75.96
2022-12-27T01:41:43.931Z,74.96
2022-12-27T01:44:49.107Z,74.98
2022-12-27T01:47:18.211Z,75.09
2022-12-27T01:50:14.747Z,74.79
2022-12-27T01:52:50.822Z,74.87
2022-12-27T01:55:24.111Z,74.53
2022-12-27T01:57:52.557Z,74.79
2022-12-27T02:00:20.976Z,74.62
2022-12-27T02:02:48.820Z,74.79
2022-12-27T02:05:17.363Z,75.69
2022-12-27T02:07:54.775Z,75.75
2022-12-27T02:10:21.411Z,75.41
2022-12-27T02:12:47.863Z,75.44
2022-12-27T02:15:14.454Z,75.53
2022-12-27T02:17:40.914Z,76.04
2022-12-27T02:20:19.517Z,76.97
2022-12-27T02:23:07.628Z,76.79
2022-12-27T02:25:42.966Z,76.75
2022-12-27T02:28:31.473Z,77.06
2022-12-27T02:31:09.583Z,76.43
2022-12-27T02:33:42.004Z,77.90
2022-12-27T02:36:12.411Z,78.20
2022-12-27T02:38:47.955Z,78.59
2022-12-27T02:41:34.090Z,78.81
2022-12-27T02:44:18.810Z,78.85
2022-12-27T02:47:05.757Z,78.62
2022-12-27T02:50:01.014Z,78.76
2022-12-27T02:52:54.878Z,79.08
2022-12-27T02:55:33.150Z,79.28
2022-12-27T02:58:24.517Z,79.13
2022-12-27T03:01:25.729Z,79.41
2022-12-27T03:04:28.398Z,79.71
2022-12-27T03:07:13.573Z,79.57
2022-12-27T03:10:12.555Z,79.88
2022-12-27T03:13:00.387Z,79.75
2022-12-27T03:15:53.855Z,80.07
2022-12-27T03:18:32.285Z,80.39
2022-12-27T03:21:19.228Z,79.30
2022-12-27T03:24:06.559Z,79.28
2022-12-27T03:26:37.590Z,79.65
2022-12-27T03:29:25.179Z,80.14
2022-12-27T03:32:14.923Z,79.79
2022-12-27T03:34:50.257Z,79.54
2022-12-27T03:37:48.798Z,79.54
2022-12-27T03:40:27.391Z,79.77
2022-12-27T03:43:13.707Z,79.56
2022-12-27T03:46:22.714Z,79.89
2022-12-27T03:49:08.499Z,79.25
2022-12-27T03:51:44.908Z,79.33
2022-12-27T03:54:16.883Z,79.33
2022-12-27T03:56:44.386Z,79.76
2022-12-27T03:59:12.233Z,79.63
2022-12-27T04:01:39.167Z,79.51
2022-12-27T04:04:05.676Z,79.49
2022-12-27T04:06:32.080Z,79.42
2022-12-27T04:09:17.404Z,80.01
2022-12-27T04:12:02.253Z,79.35
2022-12-27T04:14:47.265Z,79.78
2022-12-27T04:17:32.131Z,79.35
2022-12-27T04:20:17.144Z,80.39
2022-12-27T04:23:02.260Z,79.94
2022-12-27T04:25:48.038Z,79.85
2022-12-27T04:28:32.999Z,79.62
2022-12-27T04:31:18.374Z,79.64
2022-12-27T04:34:03.469Z,79.87
2022-12-27T04:36:29.909Z,79.68
2022-12-27T04:38:56.336Z,80.22
2022-12-27T04:41:41.168Z,80.34
2022-12-27T04:44:26.662Z,80.98
2022-12-27T04:47:11.522Z,80.88
2022-12-27T04:49:56.815Z,81.35
2022-12-27T04:52:43.194Z,81.40
2022-12-27T04:55:15.309Z,81.16
2022-12-27T04:57:41.704Z,81.74
2022-12-27T05:00:27.276Z,81.68
2022-12-27T05:02:54.135Z,81.22
2022-12-27T05:05:21.596Z,81.26
2022-12-27T05:08:07.388Z,81.07
2022-12-27T05:10:52.562Z,81.54
2022-12-27T05:13:37.440Z,81.17
2022-12-27T05:16:04.513Z,81.59
2022-12-27T05:18:31.168Z,81.62
2022-12-27T05:21:04.944Z,81.18
2022-12-27T05:23:51.863Z,81.09
2022-12-27T05:26:21.821Z,80.93
2022-12-27T05:28:49.112Z,80.90
2022-12-27T05:31:15.593Z,81.71
2022-12-27T05:33:42.055Z,81.97
2022-12-27T05:36:09.153Z,81.86
2022-12-27T05:38:35.753Z,81.83
2022-12-27T05:41:03.374Z,82.08
2022-12-27T05:43:30.922Z,81.75
2022-12-27T05:46:07.184Z,82.32
2022-12-27T05:48:34.084Z,81.91
2022-12-27T05:51:21.255Z,81.72
2022-12-27T05:53:48.152Z,81.81
2022-12-27T05:56:17.152Z,81.98
2022-12-27T05:58:44.337Z,81.34
2022-12-27T06:01:16.802Z,81.43
2022-12-27T06:03:43.969Z,82.03
2022-12-27T06:06:11.268Z,82.03
2022-12-27T06:08:38.701Z,81.40
2022-12-27T06:11:13.767Z,80.72
2022-12-27T06:13:41.747Z,80.76
2022-12-27T06:16:11.072Z,81.09
2022-12-27T06:18:39.171Z,81.43
2022-12-27T06:21:08.348Z,81.82
2022-12-27T06:23:37.526Z,81.99
2022-12-27T06:26:06.181Z,81.47
2022-12-27T06:28:33.303Z,82.22
2022-12-27T06:31:00.526Z,82.05
2022-12-27T06:33:27.933Z,82.50
2022-12-27T06:35:54.623Z,81.90
2022-12-27T06:38:21.112Z,82.92
2022-12-27T06:40:47.571Z,82.49
2022-12-27T06:43:14.344Z,82.85
2022-12-27T06:45:41.143Z,83.25
2022-12-27T06:48:07.943Z,82.82
2022-12-27T06:50:34.392Z,82.93
2022-12-27T06:53:00.875Z,82.85
2022-12-27T06:55:27.316Z,82.85
2022-12-27T06:57:53.833Z,82.53
2022-12-27T07:00:20.704Z,82.53
2022-12-27T07:02:47.882Z,81.97
2022-12-27T07:05:14.527Z,82.53
2022-12-27T07:07:40.929Z,82.56
2022-12-27T07:10:07.731Z,82.72
2022-12-27T07:12:36.791Z,82.90
2022-12-27T07:15:05.544Z,83.27
2022-12-27T07:17:34.531Z,83.21
2022-12-27T07:20:00.945Z,83.06
2022-12-27T07:22:27.550Z,82.86
2022-12-27T07:24:54.819Z,82.68
2022-12-27T07:27:21.273Z,82.04
2022-12-27T07:29:47.764Z,81.98
2022-12-27T07:32:14.212Z,81.61
2022-12-27T07:34:41.203Z,81.47
2022-12-27T07:37:07.673Z,81.42
2022-12-27T07:39:34.175Z,81.67
2022-12-27T07:42:06.302Z,81.30
2022-12-27T07:44:37.061Z,81.96
2022-12-27T07:47:03.635Z,82.18
2022-12-27T07:49:30.176Z,82.39
2022-12-27T07:51:56.614Z,82.80
2022-12-27T07:54:23.066Z,82.51
2022-12-27T07:56:49.525Z,83.05
2022-12-27T07:59:17.521Z,82.62
2022-12-27T08:02:02.875Z,82.76
2022-12-27T08:04:29.979Z,83.18
2022-12-27T08:07:17.716Z,82.48
2022-12-27T08:09:46.629Z,82.34
2022-12-27T08:12:13.619Z,82.50
2022-12-27T08:14:40.919Z,82.20
2022-12-27T08:17:14.742Z,81.85
2022-12-27T08:19:41.124Z,81.60
2022-12-27T08:22:07.657Z,80.61
2022-12-27T08:24:34.191Z,80.66
2022-12-27T08:27:00.659Z,80.71
2022-12-27T08:29:27.187Z,81.27
2022-12-27T08:31:53.704Z,80.81
2022-12-27T08:34:20.145Z,81.07
2022-12-27T08:36:55.524Z,81.53
2022-12-27T08:39:22.636Z,82.01
2022-12-27T08:41:49.121Z,81.79
2022-12-27T08:44:15.566Z,82.11
2022-12-27T08:46:42.017Z,81.85
2022-12-27T08:49:08.491Z,82.45
2022-12-27T08:51:40.763Z,83.20
2022-12-27T08:54:08.337Z,82.40
2022-12-27T08:56:34.878Z,82.67
2022-12-27T08:59:01.667Z,82.91
2022-12-27T09:01:28.701Z,82.77
2022-12-27T09:03:55.296Z,82.76
2022-12-27T09:06:23.629Z,82.12
2022-12-27T09:08:51.415Z,82.21
2022-12-27T09:11:24.212Z,82.25
2022-12-27T09:13:51.248Z,82.27
2022-12-27T09:16:23.297Z,82.50
2022-12-27T09:18:52.906Z,82.57
2022-12-27T09:21:21.758Z,81.85
2022-12-27T09:23:49.275Z,81.12
2022-12-27T09:26:24.526Z,81.45
2022-12-27T09:28:51.307Z,80.86
2022-12-27T09:31:19.378Z,80.57
2022-12-27T09:33:45.856Z,80.36
2022-12-27T09:36:18.148Z,79.78
2022-12-27T09:38:45.933Z,79.66
2022-12-27T09:42:12.238Z,79.00
2022-12-27T09:44:51.152Z,78.83
2022-12-27T09:47:25.480Z,78.81
2022-12-27T09:50:04.969Z,79.06
2022-12-27T09:52:45.453Z,78.52
2022-12-27T09:55:27.701Z,77.18
2022-12-27T09:58:04.404Z,78.16
2022-12-27T10:00:35.319Z,79.00
2022-12-27T10:03:05.383Z,79.12
2022-12-27T10:05:35.803Z,79.10
2022-12-27T10:08:50.355Z,79.29
2022-12-27T10:11:37.586Z,78.76
2022-12-27T10:14:40.124Z,79.15
2022-12-27T10:17:18.647Z,78.93
2022-12-27T10:19:57.180Z,78.83
2022-12-27T10:22:33.750Z,78.60
2022-12-27T10:25:04.985Z,77.51
2022-12-27T10:27:31.678Z,76.73
2022-12-27T10:30:00.094Z,76.62
2022-12-27T10:32:27.258Z,75.55
2022-12-27T10:34:57.517Z,75.92
2022-12-27T10:37:24.691Z,76.54
2022-12-27T10:39:51.296Z,76.97
2022-12-27T10:42:23.734Z,74.60
2022-12-27T10:44:50.204Z,74.78
2022-12-27T10:47:17.824Z,74.42
2022-12-27T10:50:03.923Z,73.11
2022-12-27T10:52:34.061Z,74.78
2022-12-27T10:55:00.482Z,75.45
2022-12-27T10:57:33.451Z,74.09
2022-12-27T11:00:22.103Z,73.99
2022-12-27T11:03:00.824Z,75.01
2022-12-27T11:05:30.366Z,75.50
2022-12-27T11:07:57.265Z,73.95
2022-12-27T11:10:26.228Z,72.62
2022-12-27T11:12:57.992Z,74.12
2022-12-27T11:15:26.201Z,74.28
2022-12-27T11:17:58.182Z,74.04
2022-12-27T11:20:38.468Z,72.95
2022-12-27T11:23:07.867Z,72.53
2022-12-27T11:25:35.525Z,72.18
2022-12-27T11:28:06.421Z,71.50
2022-12-27T11:30:39.211Z,71.33
2022-12-27T11:33:36.016Z,68.53
2022-12-27T11:36:02.932Z,69.35
2022-12-27T11:38:31.609Z,66.93
2022-12-27T11:41:04.158Z,68.15
2022-12-27T11:43:35.722Z,67.54
2022-12-27T11:46:08.153Z,67.39
2022-12-27T11:48:42.283Z,65.71
2022-12-27T11:51:42.052Z,65.25
2022-12-27T11:54:21.026Z,65.33
2022-12-27T11:56:55.274Z,65.22
2022-12-27T11:59:33.716Z,64.19
2022-12-27T12:02:22.636Z,63.69
2022-12-27T12:05:23.137Z,65.04
2022-12-27T12:08:09.219Z,65.48
2022-12-27T12:10:56.911Z,65.54
2022-12-27T12:14:05.610Z,64.25
2022-12-27T12:16:57.532Z,62.77
2022-12-27T12:19:54.558Z,58.46
2022-12-27T12:22:36.136Z,58.68
2022-12-27T12:25:38.782Z,58.57
2022-12-27T12:28:55.723Z,61.54
2022-12-27T12:31:25.120Z,58.62
2022-12-27T12:34:20.386Z,58.47
2022-12-27T12:37:08.235Z,58.51
2022-12-27T12:39:46.600Z,62.08
2022-12-27T12:42:48.658Z,63.39
2022-12-27T12:45:21.134Z,64.64
2022-12-27T12:48:25.209Z,64.05
2022-12-27T12:51:21.008Z,61.72
2022-12-27T12:54:03.921Z,60.66
2022-12-27T12:57:03.638Z,60.65
2022-12-27T12:59:51.771Z,62.27
2022-12-27T13:02:49.532Z,60.95
2022-12-27T13:05:46.843Z,62.53
2022-12-27T13:08:23.550Z,62.88
2022-12-27T13:11:01.600Z,64.29
2022-12-27T13:13:46.635Z,64.09
2022-12-27T13:16:41.255Z,64.80
2022-12-27T13:19:45.174Z,67.04
2022-12-27T13:22:14.552Z,67.99
2022-12-27T13:25:10.251Z,67.65
2022-12-27T13:27:57.094Z,67.77
2022-12-27T13:30:25.052Z,68.57
2022-12-27T13:33:10.016Z,68.67
2022-12-27T13:36:04.861Z,68.43
2022-12-27T13:39:03.450Z,69.20
2022-12-27T13:41:51.654Z,68.51
2022-12-27T13:44:21.021Z,68.74
2022-12-27T13:47:17.761Z,70.41
2022-12-27T13:50:15.028Z,70.32
2022-12-27T13:53:00.161Z,70.82
2022-12-27T13:55:54.464Z,71.68
2022-12-27T13:58:45.378Z,69.97
2022-12-27T14:01:29.302Z,71.00
2022-12-27T14:04:17.769Z,72.35
2022-12-27T14:07:11.025Z,72.87
2022-12-27T14:09:49.570Z,73.57
2022-12-27T14:12:39.631Z,73.39
2022-12-27T14:15:08.154Z,72.57
2022-12-27T14:18:02.769Z,72.34
2022-12-27T14:21:14.038Z,71.13
2022-12-27T14:23:49.077Z,71.15
2022-12-27T14:26:24.414Z,70.76
2022-12-27T14:29:05.378Z,70.57
2022-12-27T14:31:56.890Z,70.90
2022-12-27T14:34:42.000Z,70.70
2022-12-27T14:37:30.366Z,69.42
2022-12-27T14:40:21.761Z,68.74
2022-12-27T14:43:05.955Z,68.12
2022-12-27T14:46:03.371Z,69.98
2022-12-27T14:48:42.554Z,71.30
2022-12-27T14:52:00.787Z,69.96
2022-12-27T14:54:49.754Z,72.14
2022-12-27T14:57:36.695Z,72.16
2022-12-27T15:00:04.111Z,71.83
2022-12-27T15:02:52.062Z,72.40
2022-12-27T15:05:44.891Z,72.55
2022-12-27T15:08:48.940Z,72.62
2022-12-27T15:11:42.323Z,73.72
2022-12-27T15:14:23.482Z,74.26
2022-12-27T15:17:03.148Z,72.31
2022-12-27T15:20:08.355Z,73.26
2022-12-27T15:23:00.391Z,72.85
2022-12-27T15:25:44.757Z,72.04
2022-12-27T15:28:28.780Z,72.46
2022-12-27T15:31:12.464Z,73.16
2022-12-27T15:34:00.220Z,74.13
2022-12-27T15:36:47.262Z,74.63
2022-12-27T15:39:38.456Z,74.86
2022-12-27T15:42:19.207Z,74.76
2022-12-27T15:45:22.122Z,74.64
2022-12-27T15:48:22.324Z,74.97
2022-12-27T15:51:04.001Z,75.43
2022-12-27T15:53:40.635Z,75.47
2022-12-27T15:56:27.303Z,75.42
2022-12-27T15:59:31.221Z,75.11
2022-12-27T16:02:34.277Z,75.85
2022-12-27T16:05:00.795Z,75.68
2022-12-27T16:07:43.230Z,75.18
2022-12-27T16:10:29.900Z,75.43
2022-12-27T16:13:11.554Z,75.61
2022-12-27T16:15:44.864Z,75.58
2022-12-27T16:18:23.483Z,75.47
2022-12-27T16:20:58.076Z,76.17
2022-12-27T16:23:26.748Z,75.79
2022-12-27T16:26:26.100Z,76.12
2022-12-27T16:28:58.178Z,75.66
2022-12-27T16:31:31.589Z,75.79
2022-12-27T16:33:59.727Z,76.28
2022-12-27T16:36:36.293Z,76.67
2022-12-27T16:39:11.861Z,76.87
2022-12-27T16:41:59.067Z,77.35
2022-12-27T16:44:25.459Z,77.64
2022-12-27T16:46:58.011Z,77.83
2022-12-27T16:49:40.111Z,77.24
2022-12-27T16:52:32.855Z,77.77
2022-12-27T16:55:37.028Z,77.93
2022-12-27T16:58:24.763Z,77.78
2022-12-27T17:00:53.564Z,78.17
2022-12-27T17:03:35.470Z,78.15
2022-12-27T17:06:33.032Z,78.67
2022-12-27T17:09:06.246Z,78.62
2022-12-27T17:11:34.680Z,78.20
2022-12-27T17:14:09.091Z,78.33
2022-12-27T17:16:42.606Z,78.81
2022-12-27T17:19:19.810Z,78.42
2022-12-27T17:21:53.208Z,78.25
2022-12-27T17:24:22.771Z,78.24
2022-12-27T17:27:16.716Z,78.65
2022-12-27T17:30:06.303Z,79.08
2022-12-27T17:32:53.181Z,79.04
2022-12-27T17:35:38.446Z,79.63
2022-12-27T17:38:17.277Z,79.66
2022-12-27T17:41:14.981Z,79.57
2022-12-27T17:44:18.964Z,79.51
2022-12-27T17:46:58.084Z,79.89
2022-12-27T17:49:29.971Z,79.63
2022-12-27T17:52:15.934Z,79.46
2022-12-27T17:55:01.127Z,79.49
2022-12-27T17:57:46.153Z,80.19
2022-12-27T18:00:23.750Z,80.32
2022-12-27T18:02:53.641Z,79.75
2022-12-27T18:05:27.468Z,79.64
2022-12-27T18:08:20.371Z,79.44
2022-12-27T18:10:47.035Z,78.85
2022-12-27T18:13:19.748Z,79.94
2022-12-27T18:15:49.270Z,80.13
2022-12-27T18:18:26.802Z,79.77
2022-12-27T18:21:01.158Z,80.39
2022-12-27T18:23:28.077Z,79.81
2022-12-27T18:26:13.474Z,79.47
2022-12-27T18:28:41.488Z,79.45
2022-12-27T18:31:32.126Z,78.73
2022-12-27T18:34:00.085Z,78.34
2022-12-27T18:36:36.809Z,78.18
2022-12-27T18:39:08.501Z,78.05
2022-12-27T18:41:42.457Z,78.22
2022-12-27T18:44:18.782Z,78.52
2022-12-27T18:46:56.779Z,78.19
2022-12-27T18:49:30.672Z,78.14
2022-12-27T18:51:57.376Z,77.82
2022-12-27T18:54:29.684Z,78.45
2022-12-27T18:56:58.035Z,78.02
2022-12-27T18:59:28.624Z,78.27
2022-12-27T19:01:57.563Z,78.17
2022-12-27T19:04:34.647Z,78.10
2022-12-27T19:07:01.016Z,78.06
2022-12-27T19:09:35.268Z,77.48
2022-12-27T19:12:07.210Z,78.05
2022-12-27T19:14:42.803Z,78.18
2022-12-27T19:17:18.764Z,77.99
2022-12-27T19:19:48.478Z,79.17
2022-12-27T19:22:43.708Z,78.78
2022-12-27T19:25:26.095Z,79.60
2022-12-27T19:28:00.856Z,79.66
2022-12-27T19:30:35.866Z,79.50
2022-12-27T19:33:07.188Z,79.96
2022-12-27T19:35:33.624Z,79.41
2022-12-27T19:38:01.700Z,79.68
2022-12-27T19:40:28.199Z,79.68
2022-12-27T19:42:54.661Z,79.82
2022-12-27T19:45:21.097Z,78.90
2022-12-27T19:47:49.520Z,77.45
2022-12-27T19:50:16.905Z,77.88
2022-12-27T19:52:43.744Z,78.30
2022-12-27T19:55:18.980Z,78.38
2022-12-27T19:57:45.490Z,78.57
2022-12-27T20:00:17.559Z,78.07
2022-12-27T20:02:45.153Z,78.52
2022-12-27T20:05:12.805Z,78.62
2022-12-27T20:07:40.172Z,78.82
2022-12-27T20:10:07.636Z,79.11
2022-12-27T20:12:34.305Z,79.56
2022-12-27T20:15:01.023Z,79.30
2022-12-27T20:17:28.771Z,78.92
2022-12-27T20:19:55.360Z,79.25
2022-12-27T20:22:22.248Z,79.56
2022-12-27T20:24:48.709Z,79.41
2022-12-27T20:27:15.304Z,78.97
2022-12-27T20:29:41.907Z,78.72
2022-12-27T20:32:08.623Z,78.74
2022-12-27T20:34:35.154Z,78.87
2022-12-27T20:37:01.745Z,78.39
2022-12-27T20:39:28.250Z,78.50
2022-12-27T20:41:56.198Z,78.62
2022-12-27T20:44:22.706Z,78.72
2022-12-27T20:46:50.029Z,78.74
2022-12-27T20:49:16.512Z,79.42
2022-12-27T20:51:43.056Z,79.58
2022-12-27T20:54:11.818Z,79.57
2022-12-27T20:56:38.322Z,79.38
2022-12-27T20:59:04.759Z,79.83
2022-12-27T21:01:31.354Z,79.14
2022-12-27T21:03:57.916Z,78.89
2022-12-27T21:06:27.954Z,78.94
2022-12-27T21:08:57.638Z,79.36
2022-12-27T21:11:28.271Z,79.62
2022-12-27T21:13:55.068Z,80.05
2022-12-27T21:16:24.369Z,79.87
2022-12-27T21:18:51.216Z,80.21
2022-12-27T21:21:21.117Z,80.46
2022-12-27T21:23:48.650Z,80.09
2022-12-27T21:26:20.973Z,79.71
2022-12-27T21:28:48.449Z,79.12
2022-12-27T21:31:16.949Z,79.08
2022-12-27T21:33:43.736Z,78.09
2022-12-27T21:36:16.193Z,78.58
2022-12-27T21:38:43.628Z,78.80
2022-12-27T21:41:30.553Z,79.01
2022-12-27T21:43:57.135Z,78.93
2022-12-27T21:46:26.599Z,78.75
2022-12-27T21:48:58.471Z,79.30
2022-12-27T21:51:26.122Z,79.38
2022-12-27T21:53:52.756Z,79.83
2022-12-27T21:56:20.885Z,79.79
2022-12-27T21:58:47.796Z,80.19
2022-12-27T22:01:19.257Z,79.76
2022-12-27T22:03:48.102Z,79.50
2022-12-27T22:06:26.393Z,79.34
2022-12-27T22:08:55.822Z,78.76
2022-12-27T22:11:23.451Z,79.36
2022-12-27T22:13:50.330Z,79.14
2022-12-27T22:16:22.836Z,78.79
2022-12-27T22:18:50.323Z,78.61
2022-12-27T22:21:19.507Z,78.29
2022-12-27T22:23:47.707Z,78.63
2022-12-27T22:26:16.683Z,79.15
2022-12-27T22:28:43.200Z,79.49
2022-12-27T22:31:15.250Z,79.69
2022-12-27T22:33:42.172Z,80.03
2022-12-27T22:36:12.542Z,79.62
2022-12-27T22:38:40.633Z,79.71
2022-12-27T22:41:28.892Z,79.17
2022-12-27T22:44:05.284Z,79.09
2022-12-27T22:46:58.727Z,78.61
2022-12-27T22:49:18.365Z,78.90
2022-12-27T22:51:45.069Z,79.12
2022-12-27T22:54:11.461Z,79.31
2022-12-27T22:56:40.255Z,80.03
2022-12-27T22:59:08.080Z,80.33
2022-12-27T23:01:35.028Z,80.96
2022-12-27T23:04:04.011Z,81.37
2022-12-27T23:06:32.564Z,81.63
2022-12-27T23:08:59.020Z,81.55
2022-12-27T23:11:31.029Z,80.33
2022-12-27T23:14:00.324Z,80.00
2022-12-27T23:16:27.493Z,79.95
2022-12-27T23:18:54.072Z,79.79
2022-12-27T23:21:24.228Z,79.24
2022-12-27T23:23:52.212Z,78.74
2022-12-27T23:26:22.217Z,79.24
2022-12-27T23:28:50.810Z,79.67
2022-12-27T23:31:18.618Z,80.04
2022-12-27T23:33:45.124Z,80.45
2022-12-27T23:36:13.051Z,80.45
2022-12-27T23:38:40.995Z,80.76
2022-12-27T23:41:08.309Z,81.12
2022-12-27T23:43:54.514Z,81.05
2022-12-27T23:46:28.250Z,81.56
2022-12-27T23:48:56.199Z,81.39
2022-12-27T23:51:23.561Z,81.39
2022-12-27T23:53:50.249Z,80.58
2022-12-27T23:56:25.266Z,80.89
2022-12-27T23:58:53.545Z,80.39
